Pagina principale
METAR-TAF:

METAR-TAF

Aeroporti :

Altenstadt, Germania

latitudine: 47-50N, longitudine: 010-52E, altezza: 739 m

Osservazione

Il bollettino è stato emesso 1 ora e 11 minuti fa, alle 09:20 UTC
Vento 4 kt da est/sud-est
Temperature 12°C
Umidità 67%
Pressione 1022 hPa
Visibilità 10 km o più
Poco nuvoloso ad un'altezza di 2500 ft

METAR: ETHA 210920Z 11004KT 9999 FEW025 12/06 Q1022 BLU+BLU+

Ora: 12:31 (10:31 UTC)

Previsione

Il bollettino è stato emesso 3 ore e 11 minuti fa, alle 07:20 UTC
Previsione valida dal 21 alle 08 UTC al 21 alle 17 UTC
Vento 5 kt da nord-est
Visibilità 10 km o più
Poco nuvoloso ad un'altezza di 6000 ft

TAF: ETHA 210720Z 2108/2117 05005KT 9999 NSW FEW060

Osservazioni e previsioni meteorologiche di più di 4000 aeroporti (messaggi METAR e TAF).

Le stazioni disponibili sono rappresentate dai dischi gialli e rossi sulla carta.

Puntare il mouse per vedere il nome della stazione.

Clicca sopra per visualizzare le osservazioni e previsioni meteorologiche.

Per cambiare la mappa : fare clic sui pulsanti verdi con una croce nera per ingrandire, il pulsante verde con un trattino per diminuire, o sulla freccia verde per le mappe adiacenti.


METAR-TAF: